sensor_id;sensor_type;location;lat;lon;timestamp;temperature;humidity
38020;DHT22;23829;51.350;17.286;2024-01-07T00:01:33;11.30;39.20
38020;DHT22;23829;51.350;17.286;2024-01-07T00:03:59;11.00;39.20
38020;DHT22;23829;51.350;17.286;2024-01-07T00:06:26;10.70;39.30
38020;DHT22;23829;51.350;17.286;2024-01-07T00:08:52;10.10;40.30
38020;DHT22;23829;51.350;17.286;2024-01-07T00:11:18;10.70;40.20
38020;DHT22;23829;51.350;17.286;2024-01-07T00:13:45;11.10;39.00
38020;DHT22;23829;51.350;17.286;2024-01-07T00:16:12;11.50;38.10
38020;DHT22;23829;51.350;17.286;2024-01-07T00:18:38;10.90;38.90
38020;DHT22;23829;51.350;17.286;2024-01-07T00:21:05;10.40;38.70
38020;DHT22;23829;51.350;17.286;2024-01-07T00:23:31;10.40;39.40
38020;DHT22;23829;51.350;17.286;2024-01-07T00:25:57;10.40;38.90
38020;DHT22;23829;51.350;17.286;2024-01-07T00:28:23;9.70;40.60
38020;DHT22;23829;51.350;17.286;2024-01-07T00:30:50;9.80;40.50
38020;DHT22;23829;51.350;17.286;2024-01-07T00:33:16;9.80;40.70
38020;DHT22;23829;51.350;17.286;2024-01-07T00:35:43;9.90;40.30
38020;DHT22;23829;51.350;17.286;2024-01-07T00:38:09;10.20;40.20
38020;DHT22;23829;51.350;17.286;2024-01-07T00:40:36;10.50;39.40
38020;DHT22;23829;51.350;17.286;2024-01-07T00:43:02;10.90;39.30
38020;DHT22;23829;51.350;17.286;2024-01-07T00:45:28;11.30;38.60
38020;DHT22;23829;51.350;17.286;2024-01-07T00:47:54;11.70;37.80
38020;DHT22;23829;51.350;17.286;2024-01-07T00:50:21;11.00;37.80
38020;DHT22;23829;51.350;17.286;2024-01-07T00:52:47;11.50;37.20
38020;DHT22;23829;51.350;17.286;2024-01-07T00:55:14;10.90;37.70
38020;DHT22;23829;51.350;17.286;2024-01-07T00:57:41;11.10;38.10
38020;DHT22;23829;51.350;17.286;2024-01-07T01:00:08;10.70;37.80
38020;DHT22;23829;51.350;17.286;2024-01-07T01:02:34;10.90;38.00
38020;DHT22;23829;51.350;17.286;2024-01-07T01:05:03;10.60;38.10
38020;DHT22;23829;51.350;17.286;2024-01-07T01:07:29;10.20;39.50
38020;DHT22;23829;51.350;17.286;2024-01-07T01:09:56;10.90;38.70
38020;DHT22;23829;51.350;17.286;2024-01-07T01:12:22;10.30;38.90
38020;DHT22;23829;51.350;17.286;2024-01-07T01:14:49;9.70;39.80
38020;DHT22;23829;51.350;17.286;2024-01-07T01:17:15;9.60;40.70
38020;DHT22;23829;51.350;17.286;2024-01-07T01:19:42;9.90;40.60
38020;DHT22;23829;51.350;17.286;2024-01-07T01:22:08;10.30;40.00
38020;DHT22;23829;51.350;17.286;2024-01-07T01:24:34;11.00;38.80
38020;DHT22;23829;51.350;17.286;2024-01-07T01:27:01;11.20;37.80
38020;DHT22;23829;51.350;17.286;2024-01-07T01:29:27;11.10;37.50
38020;DHT22;23829;51.350;17.286;2024-01-07T01:31:53;12.30;36.80
38020;DHT22;23829;51.350;17.286;2024-01-07T01:34:20;12.10;36.00
38020;DHT22;23829;51.350;17.286;2024-01-07T01:36:46;11.40;36.10
38020;DHT22;23829;51.350;17.286;2024-01-07T01:39:13;11.00;37.00
38020;DHT22;23829;51.350;17.286;2024-01-07T01:41:39;10.90;38.20
38020;DHT22;23829;51.350;17.286;2024-01-07T01:44:06;10.60;38.10
38020;DHT22;23829;51.350;17.286;2024-01-07T01:46:32;10.70;38.90
38020;DHT22;23829;51.350;17.286;2024-01-07T01:48:59;11.50;37.90
38020;DHT22;23829;51.350;17.286;2024-01-07T01:51:26;11.00;37.00
38020;DHT22;23829;51.350;17.286;2024-01-07T01:53:54;10.20;38.10
38020;DHT22;23829;51.350;17.286;2024-01-07T01:56:22;9.60;40.60
38020;DHT22;23829;51.350;17.286;2024-01-07T01:58:49;9.50;39.70
38020;DHT22;23829;51.350;17.286;2024-01-07T02:01:15;9.50;40.10
38020;DHT22;23829;51.350;17.286;2024-01-07T02:03:41;10.10;39.60
38020;DHT22;23829;51.350;17.286;2024-01-07T02:06:09;10.60;38.70
38020;DHT22;23829;51.350;17.286;2024-01-07T02:08:36;11.10;37.40
38020;DHT22;23829;51.350;17.286;2024-01-07T02:13:43;10.60;36.90
38020;DHT22;23829;51.350;17.286;2024-01-07T02:16:09;10.00;38.70
38020;DHT22;23829;51.350;17.286;2024-01-07T02:18:36;9.70;38.20
38020;DHT22;23829;51.350;17.286;2024-01-07T02:21:02;9.50;40.10
38020;DHT22;23829;51.350;17.286;2024-01-07T02:23:29;10.10;39.10
38020;DHT22;23829;51.350;17.286;2024-01-07T02:25:55;11.40;37.90
38020;DHT22;23829;51.350;17.286;2024-01-07T02:28:21;11.40;36.50
38020;DHT22;23829;51.350;17.286;2024-01-07T02:30:47;11.60;36.50
38020;DHT22;23829;51.350;17.286;2024-01-07T02:33:14;11.50;36.10
38020;DHT22;23829;51.350;17.286;2024-01-07T02:35:40;9.90;37.20
38020;DHT22;23829;51.350;17.286;2024-01-07T02:38:06;9.10;39.90
38020;DHT22;23829;51.350;17.286;2024-01-07T02:40:32;9.20;40.10
38020;DHT22;23829;51.350;17.286;2024-01-07T02:42:59;9.60;38.90
38020;DHT22;23829;51.350;17.286;2024-01-07T02:45:25;9.80;38.80
38020;DHT22;23829;51.350;17.286;2024-01-07T02:47:52;9.60;39.00
38020;DHT22;23829;51.350;17.286;2024-01-07T02:50:18;9.70;38.90
38020;DHT22;23829;51.350;17.286;2024-01-07T02:52:44;9.60;39.00
38020;DHT22;23829;51.350;17.286;2024-01-07T02:55:10;9.90;39.30
38020;DHT22;23829;51.350;17.286;2024-01-07T02:57:37;10.30;38.40
38020;DHT22;23829;51.350;17.286;2024-01-07T03:00:03;10.00;37.80
38020;DHT22;23829;51.350;17.286;2024-01-07T03:02:31;9.50;39.60
38020;DHT22;23829;51.350;17.286;2024-01-07T03:04:57;9.90;40.00
38020;DHT22;23829;51.350;17.286;2024-01-07T03:07:24;10.40;38.10
38020;DHT22;23829;51.350;17.286;2024-01-07T03:09:50;10.50;37.50
38020;DHT22;23829;51.350;17.286;2024-01-07T03:12:22;9.60;38.60
38020;DHT22;23829;51.350;17.286;2024-01-07T03:14:48;10.00;38.20
38020;DHT22;23829;51.350;17.286;2024-01-07T03:17:15;10.40;37.80
38020;DHT22;23829;51.350;17.286;2024-01-07T03:19:43;10.40;38.00
38020;DHT22;23829;51.350;17.286;2024-01-07T03:22:09;10.50;37.70
38020;DHT22;23829;51.350;17.286;2024-01-07T03:24:35;10.50;38.20
38020;DHT22;23829;51.350;17.286;2024-01-07T03:27:02;10.20;38.40
38020;DHT22;23829;51.350;17.286;2024-01-07T03:29:28;11.20;37.80
38020;DHT22;23829;51.350;17.286;2024-01-07T03:31:55;11.90;35.60
38020;DHT22;23829;51.350;17.286;2024-01-07T03:34:21;11.30;35.40
38020;DHT22;23829;51.350;17.286;2024-01-07T03:36:47;11.20;36.10
38020;DHT22;23829;51.350;17.286;2024-01-07T03:39:13;11.40;36.40
38020;DHT22;23829;51.350;17.286;2024-01-07T03:41:40;10.20;36.20
38020;DHT22;23829;51.350;17.286;2024-01-07T03:44:06;10.10;37.80
38020;DHT22;23829;51.350;17.286;2024-01-07T03:46:33;9.90;37.90
38020;DHT22;23829;51.350;17.286;2024-01-07T03:48:59;9.30;39.80
38020;DHT22;23829;51.350;17.286;2024-01-07T03:51:25;9.80;39.40
38020;DHT22;23829;51.350;17.286;2024-01-07T03:53:52;9.90;38.70
38020;DHT22;23829;51.350;17.286;2024-01-07T03:56:18;9.70;38.40
38020;DHT22;23829;51.350;17.286;2024-01-07T03:58:44;10.40;38.50
38020;DHT22;23829;51.350;17.286;2024-01-07T04:01:16;9.60;38.20
38020;DHT22;23829;51.350;17.286;2024-01-07T04:03:42;9.20;38.70
38020;DHT22;23829;51.350;17.286;2024-01-07T04:06:08;9.10;39.50
38020;DHT22;23829;51.350;17.286;2024-01-07T04:08:35;9.70;38.90
38020;DHT22;23829;51.350;17.286;2024-01-07T04:11:02;9.60;38.70
38020;DHT22;23829;51.350;17.286;2024-01-07T04:13:29;9.70;38.70
38020;DHT22;23829;51.350;17.286;2024-01-07T04:15:55;9.40;39.20
38020;DHT22;23829;51.350;17.286;2024-01-07T04:18:21;9.20;39.70
38020;DHT22;23829;51.350;17.286;2024-01-07T04:20:47;10.00;38.40
38020;DHT22;23829;51.350;17.286;2024-01-07T04:23:14;10.10;38.30
38020;DHT22;23829;51.350;17.286;2024-01-07T04:25:40;8.80;39.00
38020;DHT22;23829;51.350;17.286;2024-01-07T04:28:08;8.80;40.90
38020;DHT22;23829;51.350;17.286;2024-01-07T04:30:35;9.40;39.90
38020;DHT22;23829;51.350;17.286;2024-01-07T04:33:02;9.50;39.50
38020;DHT22;23829;51.350;17.286;2024-01-07T04:35:28;10.10;38.10
38020;DHT22;23829;51.350;17.286;2024-01-07T04:37:55;9.40;38.80
38020;DHT22;23829;51.350;17.286;2024-01-07T04:40:21;9.80;38.90
38020;DHT22;23829;51.350;17.286;2024-01-07T04:42:47;9.80;38.40
38020;DHT22;23829;51.350;17.286;2024-01-07T04:45:13;10.10;38.10
38020;DHT22;23829;51.350;17.286;2024-01-07T04:47:40;10.40;36.90
38020;DHT22;23829;51.350;17.286;2024-01-07T04:50:06;9.50;38.00
38020;DHT22;23829;51.350;17.286;2024-01-07T04:52:33;10.30;37.80
38020;DHT22;23829;51.350;17.286;2024-01-07T04:54:59;9.40;37.90
38020;DHT22;23829;51.350;17.286;2024-01-07T04:57:26;9.60;39.60
38020;DHT22;23829;51.350;17.286;2024-01-07T04:59:52;9.60;39.00
38020;DHT22;23829;51.350;17.286;2024-01-07T05:02:19;9.30;38.90
38020;DHT22;23829;51.350;17.286;2024-01-07T05:04:46;9.80;38.20
38020;DHT22;23829;51.350;17.286;2024-01-07T05:07:12;9.80;38.30
38020;DHT22;23829;51.350;17.286;2024-01-07T05:09:39;9.40;38.80
38020;DHT22;23829;51.350;17.286;2024-01-07T05:12:06;9.00;39.00
38020;DHT22;23829;51.350;17.286;2024-01-07T05:14:32;9.20;39.80
38020;DHT22;23829;51.350;17.286;2024-01-07T05:16:58;8.90;39.20
38020;DHT22;23829;51.350;17.286;2024-01-07T05:19:24;9.20;39.70
38020;DHT22;23829;51.350;17.286;2024-01-07T05:21:51;9.80;38.10
38020;DHT22;23829;51.350;17.286;2024-01-07T05:24:17;10.00;38.10
38020;DHT22;23829;51.350;17.286;2024-01-07T05:26:44;10.60;37.00
38020;DHT22;23829;51.350;17.286;2024-01-07T05:29:11;10.50;35.90
38020;DHT22;23829;51.350;17.286;2024-01-07T05:31:40;10.60;36.90
38020;DHT22;23829;51.350;17.286;2024-01-07T05:34:07;10.60;35.80
38020;DHT22;23829;51.350;17.286;2024-01-07T05:36:33;11.10;35.40
38020;DHT22;23829;51.350;17.286;2024-01-07T05:38:59;11.00;35.70
38020;DHT22;23829;51.350;17.286;2024-01-07T05:41:26;10.90;35.90
38020;DHT22;23829;51.350;17.286;2024-01-07T05:43:52;11.20;35.10
38020;DHT22;23829;51.350;17.286;2024-01-07T05:46:19;10.90;34.50
38020;DHT22;23829;51.350;17.286;2024-01-07T05:48:49;10.20;35.90
38020;DHT22;23829;51.350;17.286;2024-01-07T05:51:16;10.30;35.60
38020;DHT22;23829;51.350;17.286;2024-01-07T05:53:44;9.90;36.40
38020;DHT22;23829;51.350;17.286;2024-01-07T05:56:10;9.40;36.40
38020;DHT22;23829;51.350;17.286;2024-01-07T05:58:37;9.50;36.90
38020;DHT22;23829;51.350;17.286;2024-01-07T06:01:03;9.30;36.60
38020;DHT22;23829;51.350;17.286;2024-01-07T06:03:29;8.20;37.80
38020;DHT22;23829;51.350;17.286;2024-01-07T06:05:57;8.30;39.20
38020;DHT22;23829;51.350;17.286;2024-01-07T06:08:23;8.50;38.10
38020;DHT22;23829;51.350;17.286;2024-01-07T06:10:49;8.90;37.20
38020;DHT22;23829;51.350;17.286;2024-01-07T06:13:16;9.00;37.80
38020;DHT22;23829;51.350;17.286;2024-01-07T06:15:42;9.50;37.00
38020;DHT22;23829;51.350;17.286;2024-01-07T06:18:08;10.00;35.70
38020;DHT22;23829;51.350;17.286;2024-01-07T06:20:35;10.20;35.20
38020;DHT22;23829;51.350;17.286;2024-01-07T06:23:01;10.60;34.80
38020;DHT22;23829;51.350;17.286;2024-01-07T06:25:27;10.00;34.50
38020;DHT22;23829;51.350;17.286;2024-01-07T06:27:53;10.50;34.90
38020;DHT22;23829;51.350;17.286;2024-01-07T06:30:20;10.60;33.90
38020;DHT22;23829;51.350;17.286;2024-01-07T06:32:46;9.10;35.70
38020;DHT22;23829;51.350;17.286;2024-01-07T06:35:14;8.80;37.60
38020;DHT22;23829;51.350;17.286;2024-01-07T06:37:40;9.30;36.80
38020;DHT22;23829;51.350;17.286;2024-01-07T06:40:07;9.30;36.60
38020;DHT22;23829;51.350;17.286;2024-01-07T06:42:33;11.00;34.50
38020;DHT22;23829;51.350;17.286;2024-01-07T06:45:00;10.70;33.60
38020;DHT22;23829;51.350;17.286;2024-01-07T06:47:26;10.50;33.80
38020;DHT22;23829;51.350;17.286;2024-01-07T06:49:52;9.60;34.90
38020;DHT22;23829;51.350;17.286;2024-01-07T06:52:18;9.70;35.00
38020;DHT22;23829;51.350;17.286;2024-01-07T06:54:47;9.70;35.20
38020;DHT22;23829;51.350;17.286;2024-01-07T06:57:13;8.90;36.20
38020;DHT22;23829;51.350;17.286;2024-01-07T06:59:39;9.40;35.70
38020;DHT22;23829;51.350;17.286;2024-01-07T07:02:05;10.00;35.00
38020;DHT22;23829;51.350;17.286;2024-01-07T07:04:32;10.60;33.60
38020;DHT22;23829;51.350;17.286;2024-01-07T07:06:58;10.50;33.80
38020;DHT22;23829;51.350;17.286;2024-01-07T07:09:26;10.50;33.10
38020;DHT22;23829;51.350;17.286;2024-01-07T07:11:52;9.80;34.80
38020;DHT22;23829;51.350;17.286;2024-01-07T07:14:18;9.50;35.50
38020;DHT22;23829;51.350;17.286;2024-01-07T07:16:44;9.00;35.70
38020;DHT22;23829;51.350;17.286;2024-01-07T07:19:11;9.20;36.00
38020;DHT22;23829;51.350;17.286;2024-01-07T07:21:40;9.30;36.00
38020;DHT22;23829;51.350;17.286;2024-01-07T07:24:07;9.90;35.70
38020;DHT22;23829;51.350;17.286;2024-01-07T07:26:33;9.80;35.00
38020;DHT22;23829;51.350;17.286;2024-01-07T07:29:02;10.50;34.20
38020;DHT22;23829;51.350;17.286;2024-01-07T07:31:28;11.40;34.00
38020;DHT22;23829;51.350;17.286;2024-01-07T07:33:54;11.70;32.00
38020;DHT22;23829;51.350;17.286;2024-01-07T07:36:21;11.30;32.10
38020;DHT22;23829;51.350;17.286;2024-01-07T07:38:47;10.70;32.80
38020;DHT22;23829;51.350;17.286;2024-01-07T07:41:13;10.90;33.40
38020;DHT22;23829;51.350;17.286;2024-01-07T07:43:39;10.50;33.60
38020;DHT22;23829;51.350;17.286;2024-01-07T07:46:05;10.20;34.20
38020;DHT22;23829;51.350;17.286;2024-01-07T07:48:32;10.70;35.10
38020;DHT22;23829;51.350;17.286;2024-01-07T07:50:58;11.50;33.20
38020;DHT22;23829;51.350;17.286;2024-01-07T07:53:24;12.10;32.50
38020;DHT22;23829;51.350;17.286;2024-01-07T07:55:51;11.90;32.50
38020;DHT22;23829;51.350;17.286;2024-01-07T07:58:17;11.30;32.50
38020;DHT22;23829;51.350;17.286;2024-01-07T08:00:43;12.00;32.80
38020;DHT22;23829;51.350;17.286;2024-01-07T08:03:11;11.90;32.30
38020;DHT22;23829;51.350;17.286;2024-01-07T08:05:37;11.60;32.50
38020;DHT22;23829;51.350;17.286;2024-01-07T08:08:05;11.60;32.80
38020;DHT22;23829;51.350;17.286;2024-01-07T08:10:31;11.80;32.60
38020;DHT22;23829;51.350;17.286;2024-01-07T08:12:58;11.50;33.30
38020;DHT22;23829;51.350;17.286;2024-01-07T08:15:24;11.90;32.60
38020;DHT22;23829;51.350;17.286;2024-01-07T08:17:52;11.20;33.40
38020;DHT22;23829;51.350;17.286;2024-01-07T08:20:18;10.40;34.90
38020;DHT22;23829;51.350;17.286;2024-01-07T08:22:45;10.70;35.50
38020;DHT22;23829;51.350;17.286;2024-01-07T08:25:11;11.30;34.20
38020;DHT22;23829;51.350;17.286;2024-01-07T08:27:41;11.40;34.30
38020;DHT22;23829;51.350;17.286;2024-01-07T08:30:07;11.50;33.40
38020;DHT22;23829;51.350;17.286;2024-01-07T08:32:34;11.30;33.50
38020;DHT22;23829;51.350;17.286;2024-01-07T08:35:01;12.20;32.80
38020;DHT22;23829;51.350;17.286;2024-01-07T08:37:27;11.50;32.80
38020;DHT22;23829;51.350;17.286;2024-01-07T08:39:53;10.70;34.30
38020;DHT22;23829;51.350;17.286;2024-01-07T08:42:20;10.50;34.70
38020;DHT22;23829;51.350;17.286;2024-01-07T08:44:46;11.10;34.40
38020;DHT22;23829;51.350;17.286;2024-01-07T08:47:13;10.80;33.90
38020;DHT22;23829;51.350;17.286;2024-01-07T08:49:40;10.40;32.70
38020;DHT22;23829;51.350;17.286;2024-01-07T08:52:07;9.00;36.10
38020;DHT22;23829;51.350;17.286;2024-01-07T08:54:33;8.30;37.30
38020;DHT22;23829;51.350;17.286;2024-01-07T08:56:59;8.90;36.90
38020;DHT22;23829;51.350;17.286;2024-01-07T08:59:25;9.20;36.30
38020;DHT22;23829;51.350;17.286;2024-01-07T09:01:52;10.10;34.90
38020;DHT22;23829;51.350;17.286;2024-01-07T09:04:18;10.40;33.60
38020;DHT22;23829;51.350;17.286;2024-01-07T09:06:44;10.10;33.80
38020;DHT22;23829;51.350;17.286;2024-01-07T09:09:10;10.00;34.50
38020;DHT22;23829;51.350;17.286;2024-01-07T09:11:37;10.40;35.50
38020;DHT22;23829;51.350;17.286;2024-01-07T09:14:03;10.70;33.70
38020;DHT22;23829;51.350;17.286;2024-01-07T09:16:30;11.20;32.90
38020;DHT22;23829;51.350;17.286;2024-01-07T09:18:56;11.30;32.50
38020;DHT22;23829;51.350;17.286;2024-01-07T09:21:22;10.90;32.10
38020;DHT22;23829;51.350;17.286;2024-01-07T09:23:51;10.40;33.60
38020;DHT22;23829;51.350;17.286;2024-01-07T09:26:18;10.20;33.60
38020;DHT22;23829;51.350;17.286;2024-01-07T09:28:44;9.90;33.00
38020;DHT22;23829;51.350;17.286;2024-01-07T09:31:11;8.90;34.50
38020;DHT22;23829;51.350;17.286;2024-01-07T09:33:37;9.40;35.10
38020;DHT22;23829;51.350;17.286;2024-01-07T09:36:04;10.30;33.90
38020;DHT22;23829;51.350;17.286;2024-01-07T09:38:30;9.80;34.00
38020;DHT22;23829;51.350;17.286;2024-01-07T09:40:56;10.10;33.60
38020;DHT22;23829;51.350;17.286;2024-01-07T09:43:22;9.90;33.30
38020;DHT22;23829;51.350;17.286;2024-01-07T09:45:50;9.40;34.00
38020;DHT22;23829;51.350;17.286;2024-01-07T09:48:17;9.20;34.70
38020;DHT22;23829;51.350;17.286;2024-01-07T09:50:44;10.20;34.10
38020;DHT22;23829;51.350;17.286;2024-01-07T09:53:15;11.10;32.70
38020;DHT22;23829;51.350;17.286;2024-01-07T09:58:26;10.40;32.60
38020;DHT22;23829;51.350;17.286;2024-01-07T10:00:52;10.70;31.60
38020;DHT22;23829;51.350;17.286;2024-01-07T10:03:19;10.30;32.00
38020;DHT22;23829;51.350;17.286;2024-01-07T10:05:45;10.90;31.80
38020;DHT22;23829;51.350;17.286;2024-01-07T10:08:11;10.10;31.50
38020;DHT22;23829;51.350;17.286;2024-01-07T10:10:38;9.50;32.80
38020;DHT22;23829;51.350;17.286;2024-01-07T10:13:06;10.00;32.80
38020;DHT22;23829;51.350;17.286;2024-01-07T10:15:34;11.00;32.40
38020;DHT22;23829;51.350;17.286;2024-01-07T10:18:05;10.40;31.70
38020;DHT22;23829;51.350;17.286;2024-01-07T10:20:33;10.50;32.70
38020;DHT22;23829;51.350;17.286;2024-01-07T10:23:01;11.00;31.90
38020;DHT22;23829;51.350;17.286;2024-01-07T10:25:28;11.00;31.40
38020;DHT22;23829;51.350;17.286;2024-01-07T10:27:59;10.50;31.90
38020;DHT22;23829;51.350;17.286;2024-01-07T10:30:26;10.20;32.40
38020;DHT22;23829;51.350;17.286;2024-01-07T10:32:59;11.70;31.50
38020;DHT22;23829;51.350;17.286;2024-01-07T10:35:36;11.30;30.30
38020;DHT22;23829;51.350;17.286;2024-01-07T10:38:03;10.20;31.20
38020;DHT22;23829;51.350;17.286;2024-01-07T10:40:31;10.60;31.60
38020;DHT22;23829;51.350;17.286;2024-01-07T10:42:59;9.90;32.10
38020;DHT22;23829;51.350;17.286;2024-01-07T10:45:26;9.50;33.10
38020;DHT22;23829;51.350;17.286;2024-01-07T10:47:55;9.20;33.80
38020;DHT22;23829;51.350;17.286;2024-01-07T10:50:23;9.80;32.80
38020;DHT22;23829;51.350;17.286;2024-01-07T10:52:58;9.70;32.60
38020;DHT22;23829;51.350;17.286;2024-01-07T10:55:26;9.90;33.80
38020;DHT22;23829;51.350;17.286;2024-01-07T10:57:56;10.10;33.30
38020;DHT22;23829;51.350;17.286;2024-01-07T11:00:23;11.30;32.20
38020;DHT22;23829;51.350;17.286;2024-01-07T11:06:01;11.00;31.20
38020;DHT22;23829;51.350;17.286;2024-01-07T11:08:34;11.10;31.00
38020;DHT22;23829;51.350;17.286;2024-01-07T11:11:10;10.70;31.40
38020;DHT22;23829;51.350;17.286;2024-01-07T11:13:39;11.20;31.30
38020;DHT22;23829;51.350;17.286;2024-01-07T11:16:07;10.70;31.60
38020;DHT22;23829;51.350;17.286;2024-01-07T11:18:45;10.40;31.40
38020;DHT22;23829;51.350;17.286;2024-01-07T11:21:23;9.90;33.30
38020;DHT22;23829;51.350;17.286;2024-01-07T11:23:51;8.90;33.80
38020;DHT22;23829;51.350;17.286;2024-01-07T11:26:22;9.10;34.20
38020;DHT22;23829;51.350;17.286;2024-01-07T11:31:20;9.00;33.90
38020;DHT22;23829;51.350;17.286;2024-01-07T11:33:50;9.80;33.20
38020;DHT22;23829;51.350;17.286;2024-01-07T11:36:17;9.90;32.80
38020;DHT22;23829;51.350;17.286;2024-01-07T11:38:45;9.80;33.10
38020;DHT22;23829;51.350;17.286;2024-01-07T11:41:12;9.90;32.40
38020;DHT22;23829;51.350;17.286;2024-01-07T11:43:58;10.00;32.70
38020;DHT22;23829;51.350;17.286;2024-01-07T11:46:27;9.70;32.50
38020;DHT22;23829;51.350;17.286;2024-01-07T11:48:54;9.60;33.40
38020;DHT22;23829;51.350;17.286;2024-01-07T11:51:26;10.40;32.20
38020;DHT22;23829;51.350;17.286;2024-01-07T11:53:52;10.00;32.50
38020;DHT22;23829;51.350;17.286;2024-01-07T11:56:19;10.10;31.80
38020;DHT22;23829;51.350;17.286;2024-01-07T11:58:45;9.70;32.60
38020;DHT22;23829;51.350;17.286;2024-01-07T12:01:14;10.50;32.30
38020;DHT22;23829;51.350;17.286;2024-01-07T12:03:44;10.10;31.40
38020;DHT22;23829;51.350;17.286;2024-01-07T12:06:11;9.70;32.10
38020;DHT22;23829;51.350;17.286;2024-01-07T12:08:43;10.00;32.10
38020;DHT22;23829;51.350;17.286;2024-01-07T12:11:14;10.60;31.60
38020;DHT22;23829;51.350;17.286;2024-01-07T12:13:41;10.60;31.70
38020;DHT22;23829;51.350;17.286;2024-01-07T12:16:09;10.80;30.90
38020;DHT22;23829;51.350;17.286;2024-01-07T12:18:41;10.80;30.70
38020;DHT22;23829;51.350;17.286;2024-01-07T12:21:08;11.20;30.00
38020;DHT22;23829;51.350;17.286;2024-01-07T12:23:37;11.20;30.00
38020;DHT22;23829;51.350;17.286;2024-01-07T12:26:08;10.40;30.90
38020;DHT22;23829;51.350;17.286;2024-01-07T12:28:35;9.90;31.80
38020;DHT22;23829;51.350;17.286;2024-01-07T12:31:04;10.30;31.40
38020;DHT22;23829;51.350;17.286;2024-01-07T12:33:30;11.40;30.40
38020;DHT22;23829;51.350;17.286;2024-01-07T12:35:58;11.10;30.00
38020;DHT22;23829;51.350;17.286;2024-01-07T12:38:24;11.20;29.70
38020;DHT22;23829;51.350;17.286;2024-01-07T12:40:55;11.10;30.00
38020;DHT22;23829;51.350;17.286;2024-01-07T12:43:22;10.80;30.00
38020;DHT22;23829;51.350;17.286;2024-01-07T12:45:51;10.80;30.30
38020;DHT22;23829;51.350;17.286;2024-01-07T12:48:18;11.30;29.90
38020;DHT22;23829;51.350;17.286;2024-01-07T12:50:45;10.40;30.50
38020;DHT22;23829;51.350;17.286;2024-01-07T12:53:11;10.30;30.80
38020;DHT22;23829;51.350;17.286;2024-01-07T12:55:37;9.90;31.30
38020;DHT22;23829;51.350;17.286;2024-01-07T12:58:04;10.00;30.70
38020;DHT22;23829;51.350;17.286;2024-01-07T13:00:30;9.10;32.20
38020;DHT22;23829;51.350;17.286;2024-01-07T13:02:56;9.00;32.70
38020;DHT22;23829;51.350;17.286;2024-01-07T13:05:23;9.00;32.80
38020;DHT22;23829;51.350;17.286;2024-01-07T13:07:49;9.30;32.70
38020;DHT22;23829;51.350;17.286;2024-01-07T13:10:16;10.40;31.70
38020;DHT22;23829;51.350;17.286;2024-01-07T13:12:42;10.20;31.10
38020;DHT22;23829;51.350;17.286;2024-01-07T13:15:09;10.80;30.90
38020;DHT22;23829;51.350;17.286;2024-01-07T13:17:37;10.80;30.60
38020;DHT22;23829;51.350;17.286;2024-01-07T13:20:04;10.00;30.90
38020;DHT22;23829;51.350;17.286;2024-01-07T13:22:32;9.10;31.40
38020;DHT22;23829;51.350;17.286;2024-01-07T13:24:59;8.20;33.20
38020;DHT22;23829;51.350;17.286;2024-01-07T13:27:25;8.30;34.20
38020;DHT22;23829;51.350;17.286;2024-01-07T13:29:52;8.40;33.40
38020;DHT22;23829;51.350;17.286;2024-01-07T13:32:18;8.20;33.80
38020;DHT22;23829;51.350;17.286;2024-01-07T13:34:45;8.40;33.90
38020;DHT22;23829;51.350;17.286;2024-01-07T13:37:11;8.70;33.50
38020;DHT22;23829;51.350;17.286;2024-01-07T13:39:38;9.00;33.40
38020;DHT22;23829;51.350;17.286;2024-01-07T13:42:05;9.20;33.10
38020;DHT22;23829;51.350;17.286;2024-01-07T13:44:32;8.90;33.10
38020;DHT22;23829;51.350;17.286;2024-01-07T13:47:00;9.70;32.70
38020;DHT22;23829;51.350;17.286;2024-01-07T13:49:28;10.40;31.90
38020;DHT22;23829;51.350;17.286;2024-01-07T13:51:54;9.40;32.40
38020;DHT22;23829;51.350;17.286;2024-01-07T13:54:21;9.70;31.50
38020;DHT22;23829;51.350;17.286;2024-01-07T13:56:47;10.40;31.30
38020;DHT22;23829;51.350;17.286;2024-01-07T13:59:14;10.10;31.10
38020;DHT22;23829;51.350;17.286;2024-01-07T14:01:41;10.50;31.30
38020;DHT22;23829;51.350;17.286;2024-01-07T14:04:08;11.20;30.10
38020;DHT22;23829;51.350;17.286;2024-01-07T14:06:35;11.90;29.50
38020;DHT22;23829;51.350;17.286;2024-01-07T14:09:01;11.80;29.20
38020;DHT22;23829;51.350;17.286;2024-01-07T14:11:29;12.00;29.00
38020;DHT22;23829;51.350;17.286;2024-01-07T14:13:55;11.00;29.40
38020;DHT22;23829;51.350;17.286;2024-01-07T14:16:22;11.00;29.60
38020;DHT22;23829;51.350;17.286;2024-01-07T14:18:48;11.00;30.00
38020;DHT22;23829;51.350;17.286;2024-01-07T14:21:15;12.10;29.00
38020;DHT22;23829;51.350;17.286;2024-01-07T14:23:41;10.90;29.40
38020;DHT22;23829;51.350;17.286;2024-01-07T14:26:07;10.90;30.30
38020;DHT22;23829;51.350;17.286;2024-01-07T14:28:34;10.80;30.10
38020;DHT22;23829;51.350;17.286;2024-01-07T14:31:01;10.70;30.00
38020;DHT22;23829;51.350;17.286;2024-01-07T14:33:29;10.40;30.40
38020;DHT22;23829;51.350;17.286;2024-01-07T14:35:56;9.90;32.00
38020;DHT22;23829;51.350;17.286;2024-01-07T14:38:23;10.00;31.80
38020;DHT22;23829;51.350;17.286;2024-01-07T14:40:51;10.50;30.90
38020;DHT22;23829;51.350;17.286;2024-01-07T14:43:18;8.80;31.80
38020;DHT22;23829;51.350;17.286;2024-01-07T14:45:44;8.40;33.30
38020;DHT22;23829;51.350;17.286;2024-01-07T14:48:10;8.40;34.20
38020;DHT22;23829;51.350;17.286;2024-01-07T14:50:37;8.40;33.60
38020;DHT22;23829;51.350;17.286;2024-01-07T14:53:03;8.00;34.40
38020;DHT22;23829;51.350;17.286;2024-01-07T14:55:29;7.50;35.00
38020;DHT22;23829;51.350;17.286;2024-01-07T14:57:56;7.70;35.50
38020;DHT22;23829;51.350;17.286;2024-01-07T15:00:22;7.60;35.40
38020;DHT22;23829;51.350;17.286;2024-01-07T15:02:49;8.00;35.70
38020;DHT22;23829;51.350;17.286;2024-01-07T15:05:17;8.90;33.50
38020;DHT22;23829;51.350;17.286;2024-01-07T15:07:43;8.80;33.60
38020;DHT22;23829;51.350;17.286;2024-01-07T15:10:10;8.60;33.10
38020;DHT22;23829;51.350;17.286;2024-01-07T15:12:36;8.50;33.90
38020;DHT22;23829;51.350;17.286;2024-01-07T15:15:03;9.30;33.60
38020;DHT22;23829;51.350;17.286;2024-01-07T15:17:32;9.20;32.50
38020;DHT22;23829;51.350;17.286;2024-01-07T15:19:58;8.80;33.10
38020;DHT22;23829;51.350;17.286;2024-01-07T15:22:24;8.40;33.10
38020;DHT22;23829;51.350;17.286;2024-01-07T15:24:50;9.00;34.00
38020;DHT22;23829;51.350;17.286;2024-01-07T15:27:18;9.40;32.80
38020;DHT22;23829;51.350;17.286;2024-01-07T15:29:44;9.00;33.90
38020;DHT22;23829;51.350;17.286;2024-01-07T15:32:11;9.40;32.70